createdAt,value
2023-05-10T00:01:19.882Z,2.17
2023-05-10T00:03:47.288Z,2.20
2023-05-10T00:06:15.045Z,2.00
2023-05-10T00:08:42.273Z,1.85
2023-05-10T00:11:09.501Z,1.98
2023-05-10T00:13:36.701Z,2.47
2023-05-10T00:16:04.124Z,2.72
2023-05-10T00:18:31.321Z,1.80
2023-05-10T00:20:59.695Z,2.20
2023-05-10T00:23:26.904Z,2.20
2023-05-10T00:25:54.182Z,1.80
2023-05-10T00:28:21.446Z,1.67
2023-05-10T00:30:48.735Z,2.03
2023-05-10T00:33:16.056Z,2.15
2023-05-10T00:35:43.263Z,1.67
2023-05-10T00:38:10.700Z,2.30
2023-05-10T00:40:38.420Z,1.90
2023-05-10T00:43:10.517Z,1.75
2023-05-10T00:45:38.772Z,1.83
2023-05-10T00:48:06.580Z,1.85
2023-05-10T00:50:34.201Z,2.40
2023-05-10T00:53:01.950Z,1.52
2023-05-10T00:55:29.461Z,1.30
2023-05-10T00:57:56.817Z,1.80
2023-05-10T01:00:24.098Z,1.48
2023-05-10T01:02:51.603Z,1.10
2023-05-10T01:05:19.420Z,1.50
2023-05-10T01:07:46.750Z,1.98
2023-05-10T01:10:14.159Z,1.63
2023-05-10T01:12:45.908Z,1.20
2023-05-10T01:15:13.320Z,1.30
2023-05-10T01:17:41.606Z,2.00
2023-05-10T01:20:10.634Z,1.20
2023-05-10T01:22:44.422Z,1.00
2023-05-10T01:25:36.982Z,1.35
2023-05-10T01:28:23.553Z,1.20
2023-05-10T01:31:03.268Z,2.00
2023-05-10T01:33:40.669Z,1.15
2023-05-10T01:36:34.878Z,1.40
2023-05-10T01:39:21.342Z,1.52
2023-05-10T01:42:06.933Z,1.35
2023-05-10T01:44:44.168Z,1.45
2023-05-10T01:47:16.093Z,1.20
2023-05-10T01:49:50.613Z,1.35
2023-05-10T01:52:22.717Z,1.38
2023-05-10T01:54:56.783Z,1.20
2023-05-10T01:57:27.468Z,1.60
2023-05-10T01:59:55.282Z,1.38
2023-05-10T02:02:24.715Z,1.10
2023-05-10T02:04:52.570Z,1.13
2023-05-10T02:07:20.333Z,1.65
2023-05-10T02:09:49.044Z,1.23
2023-05-10T02:12:17.484Z,1.20
2023-05-10T02:14:45.329Z,1.10
2023-05-10T02:17:12.907Z,0.80
2023-05-10T02:19:42.083Z,1.10
2023-05-10T02:22:09.765Z,0.95
2023-05-10T02:24:37.738Z,0.98
2023-05-10T02:27:05.428Z,1.58
2023-05-10T02:29:33.767Z,1.65
2023-05-10T02:32:01.425Z,1.00
2023-05-10T02:34:29.196Z,1.38
2023-05-10T02:36:57.251Z,0.85
2023-05-10T02:39:25.097Z,1.00
2023-05-10T02:41:53.433Z,0.98
2023-05-10T02:44:21.496Z,0.93
2023-05-10T02:46:49.008Z,1.10
2023-05-10T02:49:16.729Z,0.93
2023-05-10T02:51:51.326Z,1.30
2023-05-10T02:54:25.949Z,0.80
2023-05-10T02:56:58.017Z,1.67
2023-05-10T02:59:25.339Z,1.23
2023-05-10T03:01:52.650Z,0.75
2023-05-10T03:04:20.247Z,1.05
2023-05-10T03:06:47.898Z,1.52
2023-05-10T03:09:16.667Z,1.33
2023-05-10T03:11:51.178Z,1.55
2023-05-10T03:14:38.376Z,1.00
2023-05-10T03:17:45.142Z,1.40
2023-05-10T03:20:15.617Z,0.95
2023-05-10T03:22:48.373Z,0.95
2023-05-10T03:25:16.746Z,0.85
2023-05-10T03:27:44.977Z,1.13
2023-05-10T03:30:14.056Z,0.95
2023-05-10T03:32:42.212Z,1.02
2023-05-10T03:35:10.694Z,1.13
2023-05-10T03:37:38.518Z,1.05
2023-05-10T03:40:06.972Z,1.13
2023-05-10T03:45:04.156Z,0.90
2023-05-10T03:47:31.596Z,0.85
2023-05-10T03:50:00.660Z,1.23
2023-05-10T03:52:27.940Z,1.10
2023-05-10T03:54:55.264Z,0.85
2023-05-10T03:57:24.542Z,1.30
2023-05-10T03:59:51.817Z,0.90
2023-05-10T04:02:19.154Z,1.08
2023-05-10T04:04:46.434Z,0.95
2023-05-10T04:07:13.805Z,0.90
2023-05-10T04:09:41.340Z,0.90
2023-05-10T04:12:10.833Z,0.85
2023-05-10T04:14:38.641Z,0.98
2023-05-10T04:17:06.733Z,0.90
2023-05-10T04:19:34.160Z,0.90
2023-05-10T04:22:01.493Z,1.23
2023-05-10T04:24:28.709Z,0.90
2023-05-10T04:26:57.796Z,0.82
2023-05-10T04:29:25.248Z,1.00
2023-05-10T04:31:52.471Z,1.05
2023-05-10T04:34:21.596Z,1.17
2023-05-10T04:36:48.863Z,1.10
2023-05-10T04:39:16.070Z,0.88
2023-05-10T04:41:43.277Z,1.05
2023-05-10T04:44:10.555Z,1.00
2023-05-10T04:46:37.997Z,1.02
2023-05-10T04:49:05.354Z,1.10
2023-05-10T04:51:33.167Z,0.98
2023-05-10T04:54:06.247Z,1.10
2023-05-10T04:56:34.353Z,0.93
2023-05-10T04:59:01.813Z,1.08
2023-05-10T05:01:29.221Z,1.05
2023-05-10T05:03:57.330Z,1.20
2023-05-10T05:06:26.089Z,1.23
2023-05-10T05:08:56.553Z,1.20
2023-05-10T05:11:23.885Z,1.02
2023-05-10T05:13:51.142Z,1.58
2023-05-10T05:16:18.445Z,1.40
2023-05-10T05:18:46.046Z,1.10
2023-05-10T05:21:20.496Z,1.40
2023-05-10T05:23:47.940Z,1.60
2023-05-10T05:26:16.030Z,1.45
2023-05-10T05:28:43.310Z,1.25
2023-05-10T05:31:10.713Z,1.60
2023-05-10T05:33:38.177Z,1.48
2023-05-10T05:36:06.599Z,1.10
2023-05-10T05:38:34.179Z,1.63
2023-05-10T05:41:01.683Z,1.55
2023-05-10T05:43:29.046Z,1.80
2023-05-10T05:45:58.827Z,1.40
2023-05-10T05:48:26.447Z,1.73
2023-05-10T05:50:57.534Z,1.90
2023-05-10T05:53:24.901Z,1.88
2023-05-10T05:55:55.292Z,1.90
2023-05-10T05:58:23.220Z,1.90
2023-05-10T06:00:51.247Z,2.00
2023-05-10T06:03:19.070Z,1.90
2023-05-10T06:05:46.427Z,1.92
2023-05-10T06:08:13.882Z,2.13
2023-05-10T06:10:41.188Z,2.78
2023-05-10T06:13:08.489Z,2.20
2023-05-10T06:15:35.976Z,2.42
2023-05-10T06:18:03.228Z,2.47
2023-05-10T06:20:32.492Z,2.50
2023-05-10T06:22:59.925Z,2.20
2023-05-10T06:25:27.304Z,2.33
2023-05-10T06:27:58.288Z,2.70
2023-05-10T06:30:29.304Z,2.58
2023-05-10T06:32:57.031Z,2.20
2023-05-10T06:35:24.482Z,2.45
2023-05-10T06:37:52.255Z,2.38
2023-05-10T06:40:20.117Z,2.25
2023-05-10T06:42:48.545Z,2.55
2023-05-10T06:45:16.600Z,2.42
2023-05-10T06:47:44.604Z,2.97
2023-05-10T06:50:15.064Z,2.60
2023-05-10T06:52:42.503Z,2.58
2023-05-10T06:55:10.045Z,2.17
2023-05-10T06:57:37.519Z,2.50
2023-05-10T07:00:06.155Z,2.13
2023-05-10T07:02:33.733Z,2.00
2023-05-10T07:05:15.416Z,2.20
2023-05-10T07:07:43.284Z,1.88
2023-05-10T07:10:10.928Z,2.05
2023-05-10T07:12:39.327Z,2.17
2023-05-10T07:15:07.611Z,2.30
2023-05-10T07:17:35.160Z,1.95
2023-05-10T07:20:02.724Z,2.40
2023-05-10T07:22:30.055Z,2.10
2023-05-10T07:24:57.417Z,2.30
2023-05-10T07:27:25.133Z,2.65
2023-05-10T07:29:52.395Z,2.28
2023-05-10T07:32:19.675Z,2.30
2023-05-10T07:34:47.149Z,1.60
2023-05-10T07:37:15.185Z,1.73
2023-05-10T07:39:42.571Z,1.90
2023-05-10T07:42:10.173Z,1.60
2023-05-10T07:44:37.480Z,2.00
2023-05-10T07:47:04.983Z,1.88
2023-05-10T07:49:32.242Z,1.73
2023-05-10T07:51:59.430Z,2.88
2023-05-10T07:54:27.102Z,2.08
2023-05-10T07:56:54.274Z,2.28
2023-05-10T07:59:21.977Z,2.55
2023-05-10T08:01:49.143Z,2.75
2023-05-10T08:04:16.449Z,2.60
2023-05-10T08:06:43.701Z,3.47
2023-05-10T08:09:11.884Z,3.38
2023-05-10T08:11:39.323Z,3.30
2023-05-10T08:14:06.564Z,3.20
2023-05-10T08:16:33.870Z,3.42
2023-05-10T08:19:01.295Z,3.05
2023-05-10T08:21:28.560Z,3.70
2023-05-10T08:23:55.852Z,2.80
2023-05-10T08:26:23.084Z,3.20
2023-05-10T08:28:50.544Z,2.97
2023-05-10T08:31:17.960Z,2.65
2023-05-10T08:33:45.671Z,2.75
2023-05-10T08:36:15.171Z,2.45
2023-05-10T08:38:42.598Z,2.60
2023-05-10T08:41:10.705Z,2.85
2023-05-10T08:43:38.645Z,2.92
2023-05-10T08:46:06.667Z,2.88
2023-05-10T08:48:35.705Z,2.70
2023-05-10T08:51:04.332Z,3.33
2023-05-10T08:53:32.859Z,3.05
2023-05-10T08:56:00.397Z,4.40
2023-05-10T08:58:27.642Z,3.55
2023-05-10T09:00:54.970Z,4.35
2023-05-10T09:03:22.250Z,4.18
2023-05-10T09:05:50.185Z,4.47
2023-05-10T09:08:18.417Z,4.78
2023-05-10T09:10:48.879Z,4.53
2023-05-10T09:13:18.584Z,4.60
2023-05-10T09:15:46.343Z,4.90
2023-05-10T09:18:14.056Z,5.18
2023-05-10T09:20:41.682Z,5.07
2023-05-10T09:23:09.516Z,5.25
2023-05-10T09:25:38.206Z,6.25
2023-05-10T09:28:09.793Z,5.80
2023-05-10T09:30:38.599Z,5.43
2023-05-10T09:33:06.022Z,6.35
2023-05-10T09:35:34.650Z,6.43
2023-05-10T09:38:05.498Z,6.15
2023-05-10T09:40:33.025Z,5.47
2023-05-10T09:43:09.902Z,6.50
2023-05-10T09:45:38.926Z,5.40
2023-05-10T09:48:07.922Z,5.43
2023-05-10T09:50:35.514Z,5.22
2023-05-10T09:53:04.860Z,5.65
2023-05-10T09:55:47.074Z,5.53
2023-05-10T09:58:15.157Z,6.18
2023-05-10T10:00:44.510Z,6.13
2023-05-10T10:03:20.037Z,4.70
2023-05-10T10:05:48.806Z,6.32
2023-05-10T10:08:17.803Z,5.38
2023-05-10T10:10:47.088Z,6.40
2023-05-10T10:13:15.981Z,7.55
2023-05-10T10:15:45.047Z,6.13
2023-05-10T10:18:15.498Z,6.57
2023-05-10T10:20:43.281Z,5.45
2023-05-10T10:23:10.886Z,6.55
2023-05-10T10:25:38.996Z,6.55
2023-05-10T10:28:31.371Z,6.00
2023-05-10T10:31:03.533Z,14.73
2023-05-10T10:33:57.526Z,5.85
2023-05-10T10:36:28.122Z,6.35
2023-05-10T10:39:00.410Z,6.63
2023-05-10T10:41:35.117Z,6.95
2023-05-10T10:44:23.682Z,6.55
2023-05-10T10:47:13.335Z,6.30
2023-05-10T10:49:43.421Z,5.95
2023-05-10T10:52:19.379Z,6.55
2023-05-10T10:55:13.711Z,6.15
2023-05-10T10:57:46.436Z,6.95
2023-05-10T11:00:29.931Z,6.13
2023-05-10T11:03:04.625Z,6.75
2023-05-10T11:05:49.101Z,6.20
2023-05-10T11:08:43.190Z,14.07
2023-05-10T11:11:10.916Z,6.40
2023-05-10T11:13:42.307Z,6.18
2023-05-10T11:16:19.752Z,6.38
2023-05-10T11:19:06.247Z,4.63
2023-05-10T11:21:35.420Z,5.60
2023-05-10T11:24:06.909Z,6.10
2023-05-10T11:26:37.663Z,5.15
2023-05-10T11:29:06.037Z,5.53
2023-05-10T11:31:33.620Z,4.90
2023-05-10T11:34:04.717Z,5.28
2023-05-10T11:36:36.133Z,5.22
2023-05-10T11:39:04.243Z,4.88
2023-05-10T11:41:32.127Z,5.00
2023-05-10T11:44:00.409Z,4.65
2023-05-10T11:46:28.762Z,5.00
2023-05-10T11:49:07.822Z,5.32
2023-05-10T11:51:37.222Z,5.78
2023-05-10T11:54:11.579Z,5.28
2023-05-10T11:56:40.339Z,5.28
2023-05-10T11:59:08.896Z,4.72
2023-05-10T12:01:37.440Z,5.38
2023-05-10T12:04:04.941Z,5.25
2023-05-10T12:06:39.759Z,4.70
2023-05-10T12:09:08.917Z,4.68
2023-05-10T12:11:44.574Z,4.43
2023-05-10T12:14:12.281Z,5.68
2023-05-10T12:16:39.496Z,5.03
2023-05-10T12:19:06.849Z,5.10
2023-05-10T12:21:34.528Z,4.15
2023-05-10T12:24:06.379Z,4.43
2023-05-10T12:26:33.787Z,4.97
2023-05-10T12:29:18.325Z,4.10
2023-05-10T12:31:53.695Z,3.85
2023-05-10T12:34:35.203Z,3.92
2023-05-10T12:37:04.300Z,3.38
2023-05-10T12:39:45.400Z,4.22
2023-05-10T12:42:12.939Z,5.97
2023-05-10T12:44:40.676Z,7.75
2023-05-10T12:47:08.422Z,7.60
2023-05-10T12:49:35.575Z,5.13
2023-05-10T12:52:03.046Z,4.72
2023-05-10T12:54:30.512Z,4.65
2023-05-10T12:56:57.818Z,4.10
2023-05-10T12:59:25.002Z,3.53
2023-05-10T13:01:52.238Z,3.95
2023-05-10T13:04:19.388Z,4.57
2023-05-10T13:06:46.648Z,4.82
2023-05-10T13:09:13.884Z,3.65
2023-05-10T13:11:41.063Z,2.97
2023-05-10T13:14:08.212Z,2.80
2023-05-10T13:16:35.601Z,3.38
2023-05-10T13:19:02.928Z,3.40
2023-05-10T13:21:30.381Z,3.78
2023-05-10T13:23:57.521Z,3.05
2023-05-10T13:26:24.843Z,3.60
2023-05-10T13:28:52.855Z,3.30
2023-05-10T13:31:20.211Z,3.40
2023-05-10T13:33:47.507Z,3.42
2023-05-10T13:36:15.117Z,3.80
2023-05-10T13:38:42.860Z,3.30
2023-05-10T13:41:11.656Z,4.32
2023-05-10T13:43:38.854Z,4.07
2023-05-10T13:46:06.171Z,3.50
2023-05-10T13:48:33.368Z,3.45
2023-05-10T13:51:00.514Z,2.85
2023-05-10T13:53:27.782Z,3.50
2023-05-10T13:55:54.977Z,3.00
2023-05-10T13:58:22.216Z,3.88
2023-05-10T14:00:49.961Z,3.20
2023-05-10T14:03:18.097Z,3.42
2023-05-10T14:05:46.351Z,3.00
2023-05-10T14:08:14.183Z,3.15
2023-05-10T14:10:41.541Z,3.08
2023-05-10T14:13:08.991Z,2.38
2023-05-10T14:15:36.549Z,2.60
2023-05-10T14:18:03.971Z,2.22
2023-05-10T14:20:31.248Z,2.33
2023-05-10T14:22:58.673Z,2.40
2023-05-10T14:25:26.075Z,2.25
2023-05-10T14:27:55.472Z,3.08
2023-05-10T14:30:22.832Z,2.75
2023-05-10T14:32:50.081Z,2.40
2023-05-10T14:35:19.439Z,2.50
2023-05-10T14:37:47.147Z,2.72
2023-05-10T14:40:15.025Z,2.60
2023-05-10T14:42:43.384Z,2.70
2023-05-10T14:45:11.933Z,2.10
2023-05-10T14:47:39.283Z,2.47
2023-05-10T14:50:07.133Z,2.83
2023-05-10T14:52:34.550Z,2.13
2023-05-10T14:55:02.280Z,2.38
2023-05-10T14:57:33.269Z,2.47
2023-05-10T15:00:00.564Z,2.78
2023-05-10T15:02:28.341Z,3.20
2023-05-10T15:04:56.011Z,3.42
2023-05-10T15:07:23.727Z,3.45
2023-05-10T15:09:52.556Z,2.60
2023-05-10T15:12:19.889Z,3.17
2023-05-10T15:14:47.662Z,2.85
2023-05-10T15:17:14.843Z,2.85
2023-05-10T15:19:42.041Z,2.58
2023-05-10T15:22:09.510Z,3.00
2023-05-10T15:24:37.118Z,2.63
2023-05-10T15:27:07.751Z,2.90
2023-05-10T15:29:35.341Z,2.45
2023-05-10T15:32:03.860Z,2.47
2023-05-10T15:34:33.153Z,2.90
2023-05-10T15:37:01.546Z,3.10
2023-05-10T15:39:29.024Z,2.78
2023-05-10T15:41:56.323Z,2.97
2023-05-10T15:44:24.186Z,2.15
2023-05-10T15:46:51.607Z,3.05
2023-05-10T15:49:19.173Z,2.33
2023-05-10T15:51:46.907Z,2.88
2023-05-10T15:54:15.068Z,3.00
2023-05-10T15:56:42.688Z,2.60
2023-05-10T15:59:11.806Z,2.60
2023-05-10T16:01:39.161Z,3.55
2023-05-10T16:04:06.503Z,2.45
2023-05-10T16:06:35.395Z,2.55
2023-05-10T16:09:02.655Z,2.42
2023-05-10T16:11:30.066Z,2.75
2023-05-10T16:13:57.483Z,2.85
2023-05-10T16:16:24.844Z,2.65
2023-05-10T16:18:52.583Z,2.25
2023-05-10T16:21:20.015Z,2.67
2023-05-10T16:23:47.546Z,2.30
2023-05-10T16:26:15.150Z,2.15
2023-05-10T16:28:42.533Z,2.30
2023-05-10T16:31:09.834Z,2.38
2023-05-10T16:33:37.312Z,2.63
2023-05-10T16:36:06.163Z,3.17
2023-05-10T16:38:33.473Z,2.78
2023-05-10T16:41:03.855Z,2.65
2023-05-10T16:43:32.743Z,2.78
2023-05-10T16:46:00.014Z,2.67
2023-05-10T16:48:27.257Z,2.13
2023-05-10T16:50:54.534Z,2.60
2023-05-10T16:53:21.946Z,2.85
2023-05-10T16:55:49.274Z,2.85
2023-05-10T16:58:16.563Z,2.50
2023-05-10T17:00:43.961Z,3.00
2023-05-10T17:03:11.562Z,2.80
2023-05-10T17:05:39.049Z,3.08
2023-05-10T17:08:06.604Z,2.30
2023-05-10T17:10:33.867Z,2.92
2023-05-10T17:13:01.158Z,3.63
2023-05-10T17:15:29.042Z,2.97
2023-05-10T17:17:56.816Z,2.78
2023-05-10T17:20:24.058Z,2.63
2023-05-10T17:22:51.452Z,3.08
2023-05-10T17:25:19.064Z,2.85
2023-05-10T17:27:46.809Z,2.78
2023-05-10T17:30:14.837Z,3.25
2023-05-10T17:32:42.146Z,3.75
2023-05-10T17:35:09.938Z,3.35
2023-05-10T17:37:37.234Z,5.00
2023-05-10T17:40:07.320Z,4.57
2023-05-10T17:45:01.939Z,4.80
2023-05-10T17:47:29.487Z,4.18
2023-05-10T17:49:56.854Z,3.30
2023-05-10T17:52:24.229Z,3.10
2023-05-10T17:54:53.385Z,2.85
2023-05-10T17:57:20.826Z,2.70
2023-05-10T17:59:48.146Z,2.67
2023-05-10T18:02:15.557Z,2.88
2023-05-10T18:04:43.443Z,2.80
2023-05-10T18:07:10.986Z,2.35
2023-05-10T18:09:38.239Z,3.40
2023-05-10T18:12:06.143Z,2.78
2023-05-10T18:19:30.811Z,2.60
2023-05-10T18:21:58.267Z,2.58
2023-05-10T18:24:37.518Z,2.70
2023-05-10T18:27:06.726Z,2.70
2023-05-10T18:29:34.171Z,2.78
2023-05-10T18:32:01.545Z,2.80
2023-05-10T18:34:28.996Z,2.83
2023-05-10T18:36:56.376Z,3.35
2023-05-10T18:39:24.360Z,3.33
2023-05-10T18:41:51.829Z,3.00
2023-05-10T18:44:19.317Z,2.88
2023-05-10T18:46:46.697Z,3.33
2023-05-10T18:49:14.054Z,4.18
2023-05-10T18:51:41.362Z,3.72
2023-05-10T18:54:08.618Z,3.40
2023-05-10T18:56:36.585Z,3.15
2023-05-10T18:59:03.928Z,2.88
2023-05-10T19:01:31.308Z,2.70
2023-05-10T19:03:58.872Z,2.80
2023-05-10T19:06:26.244Z,2.85
2023-05-10T19:08:53.498Z,2.63
2023-05-10T19:11:21.877Z,2.03
2023-05-10T19:13:49.188Z,2.70
2023-05-10T19:16:16.864Z,2.47
2023-05-10T19:18:44.716Z,2.63
2023-05-10T19:21:12.158Z,2.42
2023-05-10T19:23:41.737Z,2.80
2023-05-10T19:26:11.031Z,2.47
2023-05-10T19:28:38.613Z,3.42
2023-05-10T19:31:06.315Z,2.78
2023-05-10T19:33:33.759Z,2.03
2023-05-10T19:36:01.118Z,2.75
2023-05-10T19:38:28.476Z,2.78
2023-05-10T19:40:58.183Z,2.78
2023-05-10T19:43:26.116Z,2.80
2023-05-10T19:45:53.456Z,2.75
2023-05-10T19:48:20.892Z,2.63
2023-05-10T19:50:48.140Z,3.00
2023-05-10T19:53:15.471Z,2.55
2023-05-10T19:55:42.722Z,2.30
2023-05-10T19:58:09.935Z,3.00
2023-05-10T20:00:37.334Z,2.63
2023-05-10T20:03:07.012Z,2.58
2023-05-10T20:05:36.334Z,3.00
2023-05-10T20:08:03.573Z,2.65
2023-05-10T20:10:30.958Z,3.03
2023-05-10T20:12:59.125Z,3.20
2023-05-10T20:15:27.335Z,3.38
2023-05-10T20:17:54.711Z,3.20
2023-05-10T20:20:22.200Z,2.88
2023-05-10T20:22:50.068Z,3.20
2023-05-10T20:25:18.656Z,3.00
2023-05-10T20:27:46.195Z,3.20
2023-05-10T20:30:13.499Z,2.70
2023-05-10T20:32:40.865Z,3.20
2023-05-10T20:35:08.589Z,3.05
2023-05-10T20:37:37.840Z,3.70
2023-05-10T20:40:05.806Z,3.58
2023-05-10T20:42:33.064Z,3.30
2023-05-10T20:45:00.379Z,3.22
2023-05-10T20:47:28.108Z,3.08
2023-05-10T20:49:55.375Z,4.00
2023-05-10T20:52:24.455Z,2.97
2023-05-10T20:54:52.063Z,2.78
2023-05-10T20:57:20.026Z,3.00
2023-05-10T20:59:47.272Z,3.20
2023-05-10T21:02:14.548Z,3.15
2023-05-10T21:04:41.902Z,3.15
2023-05-10T21:07:09.182Z,2.78
2023-05-10T21:09:36.581Z,2.92
2023-05-10T21:12:04.308Z,2.42
2023-05-10T21:14:31.584Z,2.65
2023-05-10T21:16:58.840Z,2.85
2023-05-10T21:19:26.263Z,2.97
2023-05-10T21:21:56.128Z,2.60
2023-05-10T21:24:23.826Z,2.67
2023-05-10T21:26:51.079Z,3.05
2023-05-10T21:29:18.335Z,3.35
2023-05-10T21:31:45.653Z,2.75
2023-05-10T21:34:14.144Z,3.08
2023-05-10T21:36:41.361Z,2.97
2023-05-10T21:39:08.730Z,3.20
2023-05-10T21:41:35.934Z,2.88
2023-05-10T21:44:03.335Z,2.33
2023-05-10T21:46:30.542Z,2.97
2023-05-10T21:48:58.073Z,2.90
2023-05-10T21:51:25.340Z,2.80
2023-05-10T21:53:52.984Z,3.22
2023-05-10T21:56:20.205Z,3.45
2023-05-10T21:58:47.554Z,3.25
2023-05-10T22:01:17.103Z,4.25
2023-05-10T22:03:44.885Z,3.00
2023-05-10T22:06:12.280Z,2.80
2023-05-10T22:08:39.510Z,3.53
2023-05-10T22:11:06.800Z,3.58
2023-05-10T22:13:34.494Z,3.10
2023-05-10T22:16:01.914Z,3.05
2023-05-10T22:18:29.158Z,3.70
2023-05-10T22:20:56.450Z,3.00
2023-05-10T22:23:23.827Z,3.13
2023-05-10T22:25:51.122Z,2.47
2023-05-10T22:28:18.338Z,2.65
2023-05-10T22:30:45.768Z,2.75
2023-05-10T22:33:12.961Z,3.03
2023-05-10T22:35:40.320Z,2.55
2023-05-10T22:38:07.545Z,2.92
2023-05-10T22:40:34.862Z,2.45
2023-05-10T22:43:02.236Z,2.75
2023-05-10T22:45:29.469Z,2.30
2023-05-10T22:47:56.723Z,2.35
2023-05-10T22:50:24.663Z,2.50
2023-05-10T22:52:51.912Z,2.88
2023-05-10T22:55:19.332Z,2.42
2023-05-10T22:57:46.588Z,2.28
2023-05-10T23:00:14.210Z,2.67
2023-05-10T23:02:41.832Z,2.58
2023-05-10T23:05:09.823Z,2.20
2023-05-10T23:07:37.259Z,2.58
2023-05-10T23:10:04.818Z,2.83
2023-05-10T23:12:32.177Z,2.30
2023-05-10T23:14:59.743Z,2.63
2023-05-10T23:17:27.029Z,2.45
2023-05-10T23:19:54.319Z,2.33
2023-05-10T23:22:21.488Z,3.03
2023-05-10T23:24:48.781Z,2.70
2023-05-10T23:27:15.925Z,3.20
2023-05-10T23:29:43.195Z,2.10
2023-05-10T23:32:10.730Z,2.67
2023-05-10T23:34:38.174Z,2.83
2023-05-10T23:37:06.191Z,3.28
2023-05-10T23:39:33.464Z,3.15
2023-05-10T23:42:00.657Z,2.92
2023-05-10T23:44:28.015Z,2.80
2023-05-10T23:46:55.244Z,3.33
2023-05-10T23:49:22.618Z,3.40
2023-05-10T23:51:49.804Z,2.88
2023-05-10T23:54:17.150Z,2.80
2023-05-10T23:56:44.454Z,2.13
2023-05-10T23:59:11.764Z,2.70
